createdAt,value
2018-01-04T00:01:17.015Z,991.91
2018-01-04T00:02:38.644Z,991.89
2018-01-04T00:04:00.586Z,991.96
2018-01-04T00:05:21.981Z,991.97
2018-01-04T00:06:43.697Z,991.95
2018-01-04T00:08:05.586Z,991.95
2018-01-04T00:09:27.715Z,991.99
2018-01-04T00:10:49.930Z,991.91
2018-01-04T00:12:11.596Z,991.92
2018-01-04T00:13:33.550Z,991.95
2018-01-04T00:14:55.560Z,991.9
2018-01-04T00:16:17.575Z,991.91
2018-01-04T00:17:39.562Z,991.94
2018-01-04T00:19:01.800Z,991.9
2018-01-04T00:20:23.954Z,991.91
2018-01-04T00:21:46.107Z,991.95
2018-01-04T00:23:08.257Z,991.98
2018-01-04T00:24:30.259Z,991.99
2018-01-04T00:25:52.148Z,991.95
2018-01-04T00:27:14.058Z,992.07
2018-01-04T00:28:35.980Z,992.08
2018-01-04T00:29:58.380Z,991.96
2018-01-04T00:31:20.606Z,992.05
2018-01-04T00:32:42.501Z,992.04
2018-01-04T00:34:04.648Z,992.08
2018-01-04T00:35:26.517Z,992.08
2018-01-04T00:36:48.191Z,992.08
2018-01-04T00:38:09.807Z,992.1
2018-01-04T00:39:31.712Z,992.11
2018-01-04T00:40:53.424Z,992.14
2018-01-04T00:42:15.591Z,992.13
2018-01-04T00:43:37.719Z,992.05
2018-01-04T00:44:59.337Z,992.18
2018-01-04T00:46:21.208Z,992.27
2018-01-04T00:47:43.384Z,992.19
2018-01-04T00:49:05.256Z,992.24
2018-01-04T00:50:27.137Z,992.31
2018-01-04T00:51:49.387Z,992.35
2018-01-04T00:53:11.011Z,992.36
2018-01-04T00:54:33.216Z,992.34
2018-01-04T00:55:55.094Z,992.38
2018-01-04T00:57:16.954Z,992.46
2018-01-04T00:58:38.831Z,992.44
2018-01-04T01:00:00.700Z,992.54
2018-01-04T01:01:22.616Z,992.52
2018-01-04T01:02:44.225Z,992.48
2018-01-04T01:04:05.579Z,992.49
2018-01-04T01:05:27.512Z,992.55
2018-01-04T01:06:49.633Z,992.54
2018-01-04T01:08:11.749Z,992.56
2018-01-04T01:09:33.149Z,992.62
2018-01-04T01:10:55.098Z,992.68
2018-01-04T01:12:17.244Z,992.7
2018-01-04T01:13:38.843Z,992.72
2018-01-04T01:15:01.018Z,992.74
2018-01-04T01:16:22.996Z,992.77
2018-01-04T01:17:44.860Z,992.73
2018-01-04T01:19:07.124Z,992.71
2018-01-04T01:20:29.198Z,992.68
2018-01-04T01:21:51.110Z,992.71
2018-01-04T01:23:13.038Z,992.71
2018-01-04T01:24:34.920Z,992.72
2018-01-04T01:25:56.634Z,992.78
2018-01-04T01:27:18.480Z,992.78
2018-01-04T01:28:40.459Z,992.77
2018-01-04T01:30:02.595Z,992.89
2018-01-04T01:31:24.528Z,992.82
2018-01-04T01:32:46.229Z,992.77
2018-01-04T01:34:07.835Z,992.77
2018-01-04T01:35:29.506Z,992.9
2018-01-04T01:36:51.628Z,992.9
2018-01-04T01:38:13.770Z,992.93
2018-01-04T01:39:35.764Z,992.93
2018-01-04T01:40:57.888Z,992.96
2018-01-04T01:42:19.778Z,992.84
2018-01-04T01:43:42.015Z,992.85
2018-01-04T01:45:03.607Z,992.94
2018-01-04T01:46:25.734Z,992.85
2018-01-04T01:47:47.936Z,992.92
2018-01-04T01:49:09.863Z,992.89
2018-01-04T01:50:31.616Z,992.89
2018-01-04T01:51:53.217Z,992.95
2018-01-04T01:53:15.181Z,992.96
2018-01-04T01:54:37.116Z,992.94
2018-01-04T01:55:58.709Z,992.95
2018-01-04T01:57:20.576Z,993.01
2018-01-04T01:58:42.616Z,992.96
2018-01-04T02:00:04.504Z,993.01
2018-01-04T02:01:26.197Z,993.01
2018-01-04T02:02:47.833Z,993.07
2018-01-04T02:04:09.718Z,993.02
2018-01-04T02:05:31.851Z,992.96
2018-01-04T02:06:53.986Z,993.07
2018-01-04T02:08:16.117Z,993.14
2018-01-04T02:09:38.259Z,993.03
2018-01-04T02:11:00.397Z,993.04
2018-01-04T02:12:22.266Z,992.96
2018-01-04T02:13:44.138Z,993.04
2018-01-04T02:15:06.010Z,992.99
2018-01-04T02:16:28.148Z,992.98
2018-01-04T02:17:49.778Z,993.09
2018-01-04T02:19:11.639Z,993.08
2018-01-04T02:20:33.546Z,993.09
2018-01-04T02:21:55.669Z,993.08
2018-01-04T02:23:17.665Z,993.14
2018-01-04T02:24:39.555Z,993.18
2018-01-04T02:26:01.439Z,993.16
2018-01-04T02:27:23.559Z,993.11
2018-01-04T02:28:45.680Z,993.11
2018-01-04T02:30:07.812Z,993.19
2018-01-04T02:31:29.434Z,993.24
2018-01-04T02:32:51.320Z,993.31
2018-01-04T02:34:13.595Z,993.29
2018-01-04T02:35:35.461Z,993.29
2018-01-04T02:36:57.633Z,993.36
2018-01-04T02:38:19.240Z,993.32
2018-01-04T02:39:41.158Z,993.31
2018-01-04T02:41:02.513Z,993.36
2018-01-04T02:42:24.122Z,993.39
2018-01-04T02:43:45.733Z,993.4
2018-01-04T02:45:07.086Z,993.38
2018-01-04T02:46:28.784Z,993.39
2018-01-04T02:47:50.408Z,993.4
2018-01-04T02:49:12.566Z,993.34
2018-01-04T02:50:34.737Z,993.39
2018-01-04T02:51:56.858Z,993.39
2018-01-04T02:53:18.736Z,993.4
2018-01-04T02:54:40.593Z,993.41
2018-01-04T02:56:02.461Z,993.38
2018-01-04T02:57:24.404Z,993.39
2018-01-04T02:58:46.289Z,993.36
2018-01-04T03:00:08.147Z,993.33
2018-01-04T03:01:30.260Z,993.34
2018-01-04T03:02:51.630Z,993.32
2018-01-04T03:04:13.435Z,993.36
2018-01-04T03:05:35.568Z,993.33
2018-01-04T03:06:57.195Z,993.41
2018-01-04T03:08:18.806Z,993.35
2018-01-04T03:09:40.935Z,993.39
2018-01-04T03:11:02.296Z,993.39
2018-01-04T03:12:23.389Z,993.35
2018-01-04T03:13:45.563Z,993.32
2018-01-04T03:15:07.460Z,993.35
2018-01-04T03:16:29.327Z,993.32
2018-01-04T03:17:50.680Z,993.25
2018-01-04T03:19:12.790Z,993.3
2018-01-04T03:20:34.158Z,993.31
2018-01-04T03:21:56.028Z,993.4
2018-01-04T03:23:17.871Z,993.37
2018-01-04T03:24:39.504Z,993.43
2018-01-04T03:26:01.667Z,993.35
2018-01-04T03:27:23.270Z,993.36
2018-01-04T03:28:45.117Z,993.36
2018-01-04T03:30:06.478Z,993.26
2018-01-04T03:31:28.572Z,993.39
2018-01-04T03:32:50.704Z,993.43
2018-01-04T03:34:12.819Z,993.36
2018-01-04T03:35:34.690Z,993.31
2018-01-04T03:36:56.645Z,993.42
2018-01-04T03:38:18.507Z,993.36
2018-01-04T03:39:40.369Z,993.37
2018-01-04T03:41:01.971Z,993.4
2018-01-04T03:42:23.560Z,993.42
2018-01-04T03:43:44.935Z,993.37
2018-01-04T03:45:07.057Z,993.34
2018-01-04T03:46:28.911Z,993.47
2018-01-04T03:47:50.507Z,993.39
2018-01-04T03:49:12.377Z,993.49
2018-01-04T03:50:34.328Z,993.53
2018-01-04T03:51:56.066Z,993.48
2018-01-04T03:53:17.965Z,993.5
2018-01-04T03:54:39.863Z,993.5
2018-01-04T03:56:02.090Z,993.52
2018-01-04T03:57:24.240Z,993.51
2018-01-04T03:58:46.378Z,993.52
2018-01-04T04:00:08.332Z,993.55
2018-01-04T04:01:30.442Z,993.55
2018-01-04T04:02:52.395Z,993.51
2018-01-04T04:04:14.143Z,993.64
2018-01-04T04:05:36.042Z,993.56
2018-01-04T04:06:57.779Z,993.64
2018-01-04T04:08:19.650Z,993.6
2018-01-04T04:09:41.538Z,993.58
2018-01-04T04:11:03.717Z,993.67
2018-01-04T04:12:25.077Z,993.6
2018-01-04T04:13:47.118Z,993.72
2018-01-04T04:15:08.475Z,993.64
2018-01-04T04:16:30.368Z,993.81
2018-01-04T04:17:52.258Z,993.82
2018-01-04T04:19:14.111Z,993.75
2018-01-04T04:20:35.728Z,993.76
2018-01-04T04:21:57.680Z,993.83
2018-01-04T04:23:19.298Z,993.86
2018-01-04T04:24:41.306Z,993.86
2018-01-04T04:26:02.900Z,993.86
2018-01-04T04:27:25.068Z,993.85
2018-01-04T04:28:46.920Z,993.92
2018-01-04T04:30:09.018Z,993.95
2018-01-04T04:31:30.362Z,994
2018-01-04T04:32:52.219Z,993.97
2018-01-04T04:34:14.272Z,994.01
2018-01-04T04:35:36.423Z,994
2018-01-04T04:36:58.537Z,993.96
2018-01-04T04:38:20.144Z,994.03
2018-01-04T04:39:41.764Z,994.05
2018-01-04T04:41:03.639Z,994.1
2018-01-04T04:42:25.368Z,994.06
2018-01-04T04:43:46.971Z,994.09
2018-01-04T04:45:08.848Z,994.03
2018-01-04T04:46:30.431Z,994
2018-01-04T04:47:52.108Z,994.03
2018-01-04T04:49:14.018Z,994
2018-01-04T04:50:35.897Z,994.03
2018-01-04T04:51:57.778Z,993.98
2018-01-04T04:53:19.648Z,994.05
2018-01-04T04:54:41.319Z,994.14
2018-01-04T04:56:03.208Z,994.19
2018-01-04T04:57:25.067Z,994.15
2018-01-04T04:58:46.407Z,994.19
2018-01-04T05:00:08.393Z,994.09
2018-01-04T05:01:30.010Z,994.15
2018-01-04T05:02:51.698Z,994.1
2018-01-04T05:04:13.037Z,994.16
2018-01-04T05:05:34.457Z,994.13
2018-01-04T05:06:56.138Z,994.19
2018-01-04T05:08:17.221Z,994.29
2018-01-04T05:09:38.817Z,994.13
2018-01-04T05:11:01.050Z,994.2
2018-01-04T05:12:23.255Z,994.11
2018-01-04T05:13:44.426Z,994.11
2018-01-04T05:15:05.855Z,994.07
2018-01-04T05:16:27.750Z,994.11
2018-01-04T05:17:49.362Z,994.06
2018-01-04T05:19:11.618Z,994
2018-01-04T05:20:33.731Z,994.04
2018-01-04T05:21:55.336Z,994.03
2018-01-04T05:23:17.033Z,993.96
2018-01-04T05:24:38.699Z,993.99
2018-01-04T05:25:59.771Z,994.05
2018-01-04T05:27:21.371Z,994.08
2018-01-04T05:28:43.139Z,994.06
2018-01-04T05:30:05.001Z,994.09
2018-01-04T05:31:26.778Z,994.07
2018-01-04T05:32:48.795Z,994.09
2018-01-04T05:34:11.065Z,994.08
2018-01-04T05:35:33.042Z,994.15
2018-01-04T05:36:54.704Z,994.18
2018-01-04T05:38:15.798Z,994.15
2018-01-04T05:39:37.653Z,994.08
2018-01-04T05:40:59.526Z,994.14
2018-01-04T05:42:21.418Z,994.1
2018-01-04T05:43:43.065Z,994.09
2018-01-04T05:45:04.402Z,994.07
2018-01-04T05:46:26.265Z,994.04
2018-01-04T05:47:48.236Z,993.98
2018-01-04T05:49:10.104Z,993.99
2018-01-04T05:50:31.696Z,993.95
2018-01-04T05:51:53.545Z,993.95
2018-01-04T05:53:15.665Z,993.95
2018-01-04T05:54:37.340Z,993.99
2018-01-04T05:55:58.935Z,994.08
2018-01-04T05:57:20.530Z,994.01
2018-01-04T05:58:41.905Z,994.05
2018-01-04T06:00:02.991Z,994.08
2018-01-04T06:01:25.302Z,994.03
2018-01-04T06:02:46.925Z,994.05
2018-01-04T06:04:08.801Z,994.14
2018-01-04T06:05:30.414Z,994.13
2018-01-04T06:06:52.018Z,994.16
2018-01-04T06:08:14.219Z,994.19
2018-01-04T06:09:35.898Z,994.14
2018-01-04T06:10:58.042Z,994.07
2018-01-04T06:12:20.178Z,994.11
2018-01-04T06:13:42.281Z,994.18
2018-01-04T06:15:03.610Z,994.13
2018-01-04T06:16:25.755Z,994.15
2018-01-04T06:17:47.400Z,994.2
2018-01-04T06:19:09.017Z,994.23
2018-01-04T06:20:30.869Z,994.24
2018-01-04T06:21:52.835Z,994.2
2018-01-04T06:23:14.714Z,994.19
2018-01-04T06:24:36.599Z,994.28
2018-01-04T06:25:57.679Z,994.27
2018-01-04T06:27:19.906Z,994.22
2018-01-04T06:28:41.785Z,994.31
2018-01-04T06:30:03.405Z,994.23
2018-01-04T06:31:25.076Z,994.24
2018-01-04T06:32:46.688Z,994.3
2018-01-04T06:34:07.966Z,994.32
2018-01-04T06:35:29.296Z,994.31
2018-01-04T06:36:51.250Z,994.33
2018-01-04T06:38:13.366Z,994.33
2018-01-04T06:39:36.774Z,994.35
2018-01-04T06:40:58.915Z,994.32
2018-01-04T06:42:20.561Z,994.35
2018-01-04T06:43:42.174Z,994.41
2018-01-04T06:45:03.831Z,994.45
2018-01-04T06:46:25.237Z,994.47
2018-01-04T06:47:47.468Z,994.52
2018-01-04T06:49:09.176Z,994.53
2018-01-04T06:50:30.324Z,994.51
2018-01-04T06:51:51.922Z,994.55
2018-01-04T06:53:14.029Z,994.53
2018-01-04T06:54:35.608Z,994.5
2018-01-04T06:55:57.775Z,994.56
2018-01-04T06:57:19.904Z,994.6
2018-01-04T06:58:41.842Z,994.63
2018-01-04T07:00:03.806Z,994.64
2018-01-04T07:01:25.152Z,994.63
2018-01-04T07:02:46.752Z,994.59
2018-01-04T07:04:08.357Z,994.69
2018-01-04T07:05:30.216Z,994.65
2018-01-04T07:06:52.348Z,994.62
2018-01-04T07:08:14.489Z,994.58
2018-01-04T07:09:36.080Z,994.61
2018-01-04T07:10:58.284Z,994.55
2018-01-04T07:12:20.021Z,994.52
2018-01-04T07:13:41.718Z,994.55
2018-01-04T07:15:03.331Z,994.47
2018-01-04T07:16:25.316Z,994.52
2018-01-04T07:17:47.489Z,994.5
2018-01-04T07:19:09.408Z,994.53
2018-01-04T07:20:31.380Z,994.6
2018-01-04T07:21:52.974Z,994.66
2018-01-04T07:23:14.955Z,994.56
2018-01-04T07:24:36.876Z,994.57
2018-01-04T07:25:57.967Z,994.56
2018-01-04T07:27:20.117Z,994.52
2018-01-04T07:28:41.786Z,994.64
2018-01-04T07:30:04.325Z,994.57
2018-01-04T07:31:25.655Z,994.57
2018-01-04T07:32:47.647Z,994.65
2018-01-04T07:34:09.818Z,994.65
2018-01-04T07:35:31.441Z,994.63
2018-01-04T07:36:53.364Z,994.69
2018-01-04T07:38:14.965Z,994.68
2018-01-04T07:39:36.317Z,994.68
2018-01-04T07:40:58.427Z,994.7
2018-01-04T07:42:20.100Z,994.62
2018-01-04T07:43:42.113Z,994.65
2018-01-04T07:45:03.548Z,994.55
2018-01-04T07:46:26.261Z,994.61
2018-01-04T07:47:48.408Z,994.63
2018-01-04T07:49:10.336Z,994.7
2018-01-04T07:50:32.447Z,994.7
2018-01-04T07:51:54.644Z,994.72
2018-01-04T07:53:16.124Z,994.7
2018-01-04T07:54:37.778Z,994.67
2018-01-04T07:55:59.666Z,994.72
2018-01-04T07:57:21.782Z,994.81
2018-01-04T07:58:43.726Z,994.84
2018-01-04T08:00:05.609Z,994.82
2018-01-04T08:01:27.540Z,994.83
2018-01-04T08:02:49.670Z,994.84
2018-01-04T08:04:11.526Z,994.85
2018-01-04T08:05:33.378Z,994.94
2018-01-04T08:06:55.054Z,994.92
2018-01-04T08:08:16.963Z,994.96
2018-01-04T08:09:38.819Z,994.96
2018-01-04T08:11:00.425Z,994.92
2018-01-04T08:12:22.558Z,994.98
2018-01-04T08:13:43.916Z,994.92
2018-01-04T08:15:05.517Z,994.96
2018-01-04T08:16:27.447Z,994.95
2018-01-04T08:17:49.276Z,994.96
2018-01-04T08:19:11.392Z,994.97
2018-01-04T08:20:32.746Z,994.98
2018-01-04T08:21:54.108Z,994.98
2018-01-04T08:23:16.332Z,994.98
2018-01-04T08:24:38.499Z,994.97
2018-01-04T08:26:00.792Z,994.99
2018-01-04T08:27:22.681Z,994.96
2018-01-04T08:28:44.636Z,994.95
2018-01-04T08:30:06.771Z,994.92
2018-01-04T08:31:28.930Z,994.89
2018-01-04T08:32:51.095Z,994.87
2018-01-04T08:34:13.480Z,994.94
2018-01-04T08:35:35.076Z,994.93
2018-01-04T08:36:56.687Z,994.88
2018-01-04T08:38:18.581Z,994.8
2018-01-04T08:39:40.207Z,994.86
2018-01-04T08:41:02.089Z,994.94
2018-01-04T08:42:23.714Z,994.97
2018-01-04T08:43:45.633Z,995.07
2018-01-04T08:45:07.767Z,995.1
2018-01-04T08:46:29.787Z,995.11
2018-01-04T08:47:51.720Z,995.14
2018-01-04T08:49:13.607Z,995.07
2018-01-04T08:50:35.294Z,995.04
2018-01-04T08:51:56.975Z,995.01
2018-01-04T08:53:18.602Z,995.02
2018-01-04T08:54:40.017Z,995.03
2018-01-04T08:56:02.266Z,995.03
2018-01-04T08:57:23.856Z,995.07
2018-01-04T08:58:45.536Z,995.05
2018-01-04T09:00:07.685Z,995.04
2018-01-04T09:01:29.814Z,994.98
2018-01-04T09:02:51.165Z,995.06
2018-01-04T09:04:13.043Z,995.11
2018-01-04T09:05:34.706Z,995.07
2018-01-04T09:06:56.643Z,995.05
2018-01-04T09:08:18.526Z,995.1
2018-01-04T09:09:40.841Z,995.15
2018-01-04T09:11:02.796Z,995.18
2018-01-04T09:12:24.582Z,995.21
2018-01-04T09:13:46.437Z,995.21
2018-01-04T09:15:08.337Z,995.2
2018-01-04T09:16:30.479Z,995.21
2018-01-04T09:17:52.585Z,995.23
2018-01-04T09:19:14.022Z,995.21
2018-01-04T09:20:35.885Z,995.17
2018-01-04T09:21:57.507Z,995.18
2018-01-04T09:23:19.398Z,995.14
2018-01-04T09:24:41.266Z,995.22
2018-01-04T09:26:02.653Z,995.24
2018-01-04T09:27:23.999Z,995.24
2018-01-04T09:28:46.195Z,995.23
2018-01-04T09:30:08.133Z,995.22
2018-01-04T09:31:29.789Z,995.26
2018-01-04T09:32:51.655Z,995.24
2018-01-04T09:34:13.568Z,995.32
2018-01-04T09:35:35.581Z,995.33
2018-01-04T09:36:57.559Z,995.32
2018-01-04T09:38:19.708Z,995.35
2018-01-04T09:39:41.581Z,995.31
2018-01-04T09:41:03.457Z,995.33
2018-01-04T09:42:24.849Z,995.33
2018-01-04T09:43:46.708Z,995.32
2018-01-04T09:45:08.590Z,995.34
2018-01-04T09:46:30.834Z,995.34
2018-01-04T09:47:52.957Z,995.34
2018-01-04T09:49:15.087Z,995.36
2018-01-04T09:50:37.221Z,995.38
2018-01-04T09:51:58.835Z,995.27
2018-01-04T09:53:20.995Z,995.33
2018-01-04T09:54:42.857Z,995.39
2018-01-04T09:56:05.037Z,995.36
2018-01-04T09:57:26.986Z,995.4
2018-01-04T09:58:48.608Z,995.39
2018-01-04T10:00:10.609Z,995.38
2018-01-04T10:01:32.492Z,995.42
2018-01-04T10:02:54.146Z,995.38
2018-01-04T10:04:16.308Z,995.4
2018-01-04T10:05:38.436Z,995.41
2018-01-04T10:07:00.052Z,995.37
2018-01-04T10:08:22.064Z,995.4
2018-01-04T10:09:43.665Z,995.38
2018-01-04T10:11:05.548Z,995.4
2018-01-04T10:12:27.443Z,995.4
2018-01-04T10:13:48.794Z,995.42
2018-01-04T10:15:10.677Z,995.32
2018-01-04T10:16:32.678Z,995.32
2018-01-04T10:17:54.306Z,995.31
2018-01-04T10:19:16.178Z,995.3
2018-01-04T10:20:38.423Z,995.22
2018-01-04T10:22:00.359Z,995.21
2018-01-04T10:23:22.246Z,995.22
2018-01-04T10:24:44.217Z,995.19
2018-01-04T10:26:06.378Z,995.21
2018-01-04T10:27:28.035Z,995.24
2018-01-04T10:28:49.909Z,995.23
2018-01-04T10:30:12.138Z,995.16
2018-01-04T10:31:33.770Z,995.13
2018-01-04T10:32:55.745Z,995.11
2018-01-04T10:34:17.927Z,995.13
2018-01-04T10:35:39.287Z,995.17
2018-01-04T10:37:01.236Z,995.17
2018-01-04T10:38:22.840Z,995.1
2018-01-04T10:39:44.961Z,995.11
2018-01-04T10:41:06.850Z,995.16
2018-01-04T10:42:28.995Z,995.18
2018-01-04T10:43:51.125Z,995.18
2018-01-04T10:45:13.118Z,995.16
2018-01-04T10:46:34.766Z,995.18
2018-01-04T10:47:56.646Z,995.16
2018-01-04T10:49:18.589Z,995.14
2018-01-04T10:50:40.799Z,995.18
2018-01-04T10:52:02.958Z,995.18
2018-01-04T10:53:24.453Z,995.17
2018-01-04T10:54:46.856Z,995.13
2018-01-04T10:56:09.025Z,995.09
2018-01-04T10:57:31.154Z,995.09
2018-01-04T10:58:53.113Z,995.04
2018-01-04T11:00:15.292Z,995
2018-01-04T11:01:37.066Z,995.02
2018-01-04T11:02:58.695Z,994.98
2018-01-04T11:04:20.946Z,994.92
2018-01-04T11:05:43.079Z,994.94
2018-01-04T11:07:04.988Z,994.91
2018-01-04T11:08:26.630Z,994.92
2018-01-04T11:09:48.085Z,994.88
2018-01-04T11:11:10.065Z,994.87
2018-01-04T11:12:32.110Z,994.87
2018-01-04T11:13:53.195Z,994.88
2018-01-04T11:15:14.846Z,994.81
2018-01-04T11:16:36.765Z,994.79
2018-01-04T11:17:58.495Z,994.77
2018-01-04T11:19:20.138Z,994.79
2018-01-04T11:20:42.164Z,994.78
2018-01-04T11:22:04.048Z,994.79
2018-01-04T11:23:26.251Z,994.7
2018-01-04T11:24:48.546Z,994.71
2018-01-04T11:26:10.528Z,994.68
2018-01-04T11:27:32.225Z,994.7
2018-01-04T11:28:54.154Z,994.61
2018-01-04T11:30:16.321Z,994.58
2018-01-04T11:31:37.935Z,994.48
2018-01-04T11:32:59.814Z,994.52
2018-01-04T11:34:21.676Z,994.5
2018-01-04T11:35:43.908Z,994.5
2018-01-04T11:37:05.875Z,994.51
2018-01-04T11:38:27.528Z,994.49
2018-01-04T11:39:49.137Z,994.53
2018-01-04T11:41:11.283Z,994.51
2018-01-04T11:42:33.172Z,994.41
2018-01-04T11:43:54.535Z,994.44
2018-01-04T11:45:16.155Z,994.46
2018-01-04T11:46:38.325Z,994.48
2018-01-04T11:48:00.028Z,994.42
2018-01-04T11:49:22.235Z,994.43
2018-01-04T11:50:44.409Z,994.42
2018-01-04T11:52:06.317Z,994.39
2018-01-04T11:53:28.262Z,994.35
2018-01-04T11:54:50.424Z,994.34
2018-01-04T11:56:12.554Z,994.3
2018-01-04T11:57:33.903Z,994.34
2018-01-04T11:58:56.117Z,994.28
2018-01-04T12:00:18.030Z,994.25
2018-01-04T12:01:39.928Z,994.33
2018-01-04T12:03:01.296Z,994.28
2018-01-04T12:04:23.642Z,994.3
2018-01-04T12:05:45.371Z,994.35
2018-01-04T12:07:07.516Z,994.34
2018-01-04T12:08:29.429Z,994.34
2018-01-04T12:09:51.739Z,994.32
2018-01-04T12:11:13.346Z,994.35
2018-01-04T12:12:35.674Z,994.33
2018-01-04T12:13:57.911Z,994.26
2018-01-04T12:15:19.533Z,994.3
2018-01-04T12:16:41.771Z,994.28
2018-01-04T12:18:04.138Z,994.27
2018-01-04T12:19:26.090Z,994.24
2018-01-04T12:20:47.453Z,994.21
2018-01-04T12:22:09.585Z,994.23
2018-01-04T12:23:31.764Z,994.1
2018-01-04T12:24:53.397Z,994.08
2018-01-04T12:26:15.405Z,994.05
2018-01-04T12:27:37.286Z,994.06
2018-01-04T12:28:59.222Z,994.07
2018-01-04T12:30:21.109Z,993.99
2018-01-04T12:31:43.308Z,993.99
2018-01-04T12:33:05.456Z,993.98
2018-01-04T12:34:27.578Z,993.98
2018-01-04T12:35:49.217Z,993.93
2018-01-04T12:37:11.107Z,993.93
2018-01-04T12:38:32.974Z,993.9
2018-01-04T12:39:55.109Z,993.88
2018-01-04T12:41:17.116Z,993.86
2018-01-04T12:42:39.003Z,993.83
2018-01-04T12:44:00.595Z,993.77
2018-01-04T12:45:22.697Z,993.74
2018-01-04T12:46:44.328Z,993.79
2018-01-04T12:48:06.074Z,993.76
2018-01-04T12:49:27.984Z,993.71
2018-01-04T12:50:49.885Z,993.72
2018-01-04T12:52:12.069Z,993.73
2018-01-04T12:53:34.194Z,993.65
2018-01-04T12:54:55.953Z,993.67
2018-01-04T12:56:17.602Z,993.67
2018-01-04T12:57:39.584Z,993.6
2018-01-04T12:59:01.744Z,993.57
2018-01-04T13:00:23.085Z,993.58
2018-01-04T13:01:44.965Z,993.55
2018-01-04T13:03:06.622Z,993.55
2018-01-04T13:04:28.573Z,993.5
2018-01-04T13:05:49.925Z,993.52
2018-01-04T13:07:11.756Z,993.46
2018-01-04T13:08:33.915Z,993.45
2018-01-04T13:09:55.807Z,993.46
2018-01-04T13:11:17.953Z,993.43
2018-01-04T13:12:40.106Z,993.49
2018-01-04T13:14:02.003Z,993.44
2018-01-04T13:15:24.015Z,993.42
2018-01-04T13:16:46.155Z,993.43
2018-01-04T13:18:07.807Z,993.44
2018-01-04T13:19:30.016Z,993.43
2018-01-04T13:20:52.195Z,993.48
2018-01-04T13:22:13.799Z,993.54
2018-01-04T13:23:36.016Z,993.45
2018-01-04T13:24:58.251Z,993.47
2018-01-04T13:26:20.452Z,993.47
2018-01-04T13:27:42.619Z,993.47
2018-01-04T13:29:04.757Z,993.43
2018-01-04T13:30:26.687Z,993.45
2018-01-04T13:31:48.293Z,993.39
2018-01-04T13:33:10.183Z,993.4
2018-01-04T13:34:32.621Z,993.36
2018-01-04T13:35:54.803Z,993.37
2018-01-04T13:37:16.963Z,993.36
2018-01-04T13:38:38.556Z,993.36
2018-01-04T13:40:00.207Z,993.35
2018-01-04T13:41:21.836Z,993.31
2018-01-04T13:42:43.514Z,993.32
2018-01-04T13:44:05.143Z,993.25
2018-01-04T13:45:27.077Z,993.31
2018-01-04T13:46:48.688Z,993.29
2018-01-04T13:48:10.314Z,993.32
2018-01-04T13:49:32.264Z,993.3
2018-01-04T13:50:54.216Z,993.3
2018-01-04T13:52:16.163Z,993.24
2018-01-04T13:53:38.090Z,993.22
2018-01-04T13:55:00.048Z,993.18
2018-01-04T13:56:21.997Z,993.16
2018-01-04T13:57:43.698Z,993.19
2018-01-04T13:59:05.872Z,993.16
2018-01-04T14:00:27.844Z,993.11
2018-01-04T14:01:50.096Z,993.14
2018-01-04T14:03:11.831Z,993.12
2018-01-04T14:04:33.548Z,993.12
2018-01-04T14:05:55.576Z,993.15
2018-01-04T14:07:17.757Z,993.12
2018-01-04T14:08:39.381Z,993.16
2018-01-04T14:10:01.111Z,993.08
2018-01-04T14:11:23.005Z,993.08
2018-01-04T14:12:44.667Z,993.07
2018-01-04T14:14:06.308Z,993.01
2018-01-04T14:15:28.176Z,993.01
2018-01-04T14:16:50.166Z,993
2018-01-04T14:18:11.536Z,992.96
2018-01-04T14:19:33.729Z,992.96
2018-01-04T14:20:55.896Z,992.97
2018-01-04T14:22:18.056Z,993.03
2018-01-04T14:23:39.995Z,993
2018-01-04T14:25:02.375Z,993
2018-01-04T14:26:24.097Z,992.9
2018-01-04T14:27:46.016Z,992.87
2018-01-04T14:29:07.915Z,992.92
2018-01-04T14:30:30.069Z,992.88
2018-01-04T14:31:52.198Z,992.83
2018-01-04T14:33:14.092Z,992.83
2018-01-04T14:34:36.070Z,992.84
2018-01-04T14:35:57.713Z,992.75
2018-01-04T14:37:20.022Z,992.73
2018-01-04T14:38:41.382Z,992.67
2018-01-04T14:40:03.528Z,992.56
2018-01-04T14:41:25.768Z,992.54
2018-01-04T14:42:47.120Z,992.48
2018-01-04T14:44:09.016Z,992.43
2018-01-04T14:45:31.181Z,992.42
2018-01-04T14:46:53.047Z,992.45
2018-01-04T14:48:14.980Z,992.46
2018-01-04T14:49:37.143Z,992.45
2018-01-04T14:50:59.294Z,992.44
2018-01-04T14:52:21.190Z,992.41
2018-01-04T14:53:43.085Z,992.44
2018-01-04T14:55:05.342Z,992.43
2018-01-04T14:56:27.520Z,992.41
2018-01-04T14:57:50.379Z,992.45
2018-01-04T14:59:12.079Z,992.45
2018-01-04T15:00:33.954Z,992.48
2018-01-04T15:01:56.105Z,992.47
2018-01-04T15:03:18.268Z,992.43
2018-01-04T15:04:40.260Z,992.42
2018-01-04T15:06:01.887Z,992.39
2018-01-04T15:07:24.048Z,992.37
2018-01-04T15:08:45.956Z,992.39
2018-01-04T15:10:07.853Z,992.37
2018-01-04T15:11:29.737Z,992.34
2018-01-04T15:12:51.081Z,992.31
2018-01-04T15:14:12.792Z,992.28
2018-01-04T15:15:35.061Z,992.2
2018-01-04T15:16:57.213Z,992.21
2018-01-04T15:18:19.358Z,992.21
2018-01-04T15:19:41.522Z,992.2
2018-01-04T15:21:03.434Z,992.11
2018-01-04T15:22:25.334Z,992.1
2018-01-04T15:23:47.276Z,992.09
2018-01-04T15:25:09.197Z,992.03
2018-01-04T15:26:31.383Z,992.01
2018-01-04T15:27:53.135Z,991.94
2018-01-04T15:29:15.069Z,991.93
2018-01-04T15:30:36.946Z,991.85
2018-01-04T15:31:59.149Z,991.84
2018-01-04T15:33:21.459Z,991.85
2018-01-04T15:34:43.643Z,991.8
2018-01-04T15:36:05.818Z,991.78
2018-01-04T15:37:27.683Z,991.72
2018-01-04T15:38:49.299Z,991.71
2018-01-04T15:40:11.247Z,991.67
2018-01-04T15:41:32.995Z,991.72
2018-01-04T15:42:54.614Z,991.73
2018-01-04T15:44:16.254Z,991.78
2018-01-04T15:45:38.479Z,991.71
2018-01-04T15:46:59.817Z,991.68
2018-01-04T15:48:21.593Z,991.61
2018-01-04T15:50:15.813Z,991.6
2018-01-04T15:51:37.412Z,991.59
2018-01-04T15:52:58.765Z,991.56
2018-01-04T15:54:20.656Z,991.52
2018-01-04T15:55:42.308Z,991.52
2018-01-04T15:57:04.188Z,991.44
2018-01-04T15:58:26.067Z,991.47
2018-01-04T15:59:47.981Z,991.41
2018-01-04T16:01:09.890Z,991.43
2018-01-04T16:02:31.561Z,991.43
2018-01-04T16:03:53.188Z,991.36
2018-01-04T16:05:15.085Z,991.35
2018-01-04T16:06:36.765Z,991.32
2018-01-04T16:07:59.458Z,991.32
2018-01-04T16:09:21.707Z,991.27
2018-01-04T16:10:43.133Z,991.25
2018-01-04T16:12:05.318Z,991.19
2018-01-04T16:13:26.970Z,991.12
2018-01-04T16:14:48.609Z,991.15
2018-01-04T16:16:10.264Z,991.13
2018-01-04T16:17:31.887Z,991.11
2018-01-04T16:18:54.036Z,991.1
2018-01-04T16:20:15.533Z,991.06
2018-01-04T16:21:37.171Z,991.06
2018-01-04T16:22:58.248Z,991.01
2018-01-04T16:24:20.211Z,991
2018-01-04T16:25:41.907Z,990.99
2018-01-04T16:27:03.020Z,990.98
2018-01-04T16:28:25.221Z,990.96
2018-01-04T16:29:46.302Z,990.94
2018-01-04T16:31:08.186Z,990.91
2018-01-04T16:32:29.803Z,990.87
2018-01-04T16:33:51.435Z,990.81
2018-01-04T16:35:13.294Z,990.87
2018-01-04T16:36:34.680Z,990.8
2018-01-04T16:37:56.668Z,990.84
2018-01-04T16:39:18.285Z,990.83
2018-01-04T16:40:40.200Z,990.8
2018-01-04T16:42:02.344Z,990.79
2018-01-04T16:43:23.961Z,990.77
2018-01-04T16:44:45.881Z,990.77
2018-01-04T16:46:07.787Z,990.8
2018-01-04T16:47:29.959Z,990.79
2018-01-04T16:48:52.097Z,990.77
2018-01-04T16:50:14.037Z,990.74
2018-01-04T16:51:36.061Z,990.75
2018-01-04T16:52:58.224Z,990.74
2018-01-04T16:54:20.393Z,990.73
2018-01-04T16:55:42.357Z,990.77
2018-01-04T16:57:04.426Z,990.77
2018-01-04T16:58:26.077Z,990.77
2018-01-04T16:59:47.949Z,990.81
2018-01-04T17:01:09.565Z,990.76
2018-01-04T17:02:31.369Z,990.78
2018-01-04T17:03:53.287Z,990.73
2018-01-04T17:05:14.922Z,990.72
2018-01-04T17:06:36.857Z,990.7